KLNA/LNA METAR and TAF weather

Enter ICAO airport designator
Station Type Date Time Source
KLNA METAR 2019/04/25 12:15 UTC NOAA

KLNA 251215Z AUTO 00000KT 20/19 A3002 RMK AO2 T02000189 PWINO


Station Type Date Time Source
KLNA Decoded METAR 2019/04/25 12:15 UTC NOAA

Station name not available
Apr 25, 2019 - 08:15 AM EDT / 2019.04.25 1215 UTC
Wind: Calm:0
Temperature: 68.0 F (20.0 C)
Dew Point: 66.0 F (18.9 C)
Relative Humidity: 93%
Pressure (altimeter): 30.02 in. Hg (1016 hPa)
ob: KLNA 251215Z AUTO 00000KT 20/19 A3002 RMK AO2 T02000189 PWINO
cycle: 12

Station Type Date Time Source
KLNA TAF UTC NOAA

Error!

Example: see airport list